createdAt,value
2022-09-25T00:03:16.298Z,15.20
2022-09-25T00:07:17.803Z,15.18
2022-09-25T00:11:27.539Z,15.25
2022-09-25T00:15:29.049Z,15.28
2022-09-25T00:19:50.850Z,15.27
2022-09-25T00:23:53.664Z,15.25
2022-09-25T00:27:56.185Z,15.28
2022-09-25T00:31:57.812Z,15.28
2022-09-25T00:36:04.872Z,15.25
2022-09-25T00:40:07.145Z,15.25
2022-09-25T00:44:46.362Z,15.28
2022-09-25T00:49:14.932Z,15.33
2022-09-25T00:53:24.522Z,15.34
2022-09-25T00:57:31.065Z,15.35
2022-09-25T01:01:32.945Z,15.38
2022-09-25T01:05:37.371Z,15.41
2022-09-25T01:09:38.906Z,15.41
2022-09-25T01:13:41.297Z,15.37
2022-09-25T01:17:51.767Z,15.31
2022-09-25T01:22:05.131Z,15.27
2022-09-25T01:26:16.120Z,15.20
2022-09-25T01:30:19.764Z,15.15
2022-09-25T01:34:31.178Z,15.11
2022-09-25T01:38:41.491Z,15.07
2022-09-25T01:42:54.178Z,15.04
2022-09-25T01:47:03.065Z,15.03
2022-09-25T01:51:18.543Z,15.04
2022-09-25T01:55:30.039Z,15.01
2022-09-25T01:59:40.569Z,14.98
2022-09-25T02:03:47.709Z,14.98
2022-09-25T02:07:54.808Z,15.00
2022-09-25T02:12:01.595Z,15.04
2022-09-25T02:16:09.035Z,14.97
2022-09-25T02:20:29.575Z,14.94
2022-09-25T02:24:31.602Z,14.94
2022-09-25T02:28:33.292Z,14.95
2022-09-25T02:32:34.829Z,14.94
2022-09-25T02:36:36.371Z,14.90
2022-09-25T02:40:46.587Z,14.87
2022-09-25T02:45:15.577Z,14.83
2022-09-25T02:49:40.387Z,14.85
2022-09-25T02:54:07.353Z,14.86
2022-09-25T02:58:29.504Z,14.86
2022-09-25T03:02:32.967Z,14.83
2022-09-25T03:06:34.558Z,14.80
2022-09-25T03:10:37.780Z,14.75
2022-09-25T03:14:40.081Z,14.72
2022-09-25T03:18:41.856Z,14.69
2022-09-25T03:22:43.356Z,14.67
2022-09-25T03:26:45.460Z,14.66
2022-09-25T03:31:10.293Z,14.66
2022-09-25T03:35:11.793Z,14.60
2022-09-25T03:39:15.139Z,14.66
2022-09-25T03:43:16.619Z,14.66
2022-09-25T03:47:18.171Z,14.64
2022-09-25T03:51:20.979Z,14.59
2022-09-25T03:55:22.544Z,14.54
2022-09-25T03:59:24.191Z,14.45
2022-09-25T04:03:28.484Z,14.39
2022-09-25T04:07:30.243Z,14.38
2022-09-25T04:11:31.874Z,14.38
2022-09-25T04:15:34.186Z,14.38
2022-09-25T04:19:35.727Z,14.35
2022-09-25T04:23:38.236Z,14.35
2022-09-25T04:27:39.754Z,14.35
2022-09-25T04:31:41.290Z,14.35
2022-09-25T04:35:42.898Z,14.31
2022-09-25T04:39:44.407Z,14.30
2022-09-25T04:43:46.011Z,14.30
2022-09-25T04:47:47.822Z,14.29
2022-09-25T04:51:49.345Z,14.29
2022-09-25T04:55:51.651Z,14.26
2022-09-25T04:59:53.202Z,14.20
2022-09-25T05:03:54.846Z,14.16
2022-09-25T05:07:58.677Z,14.08
2022-09-25T05:12:00.343Z,14.06
2022-09-25T05:16:02.117Z,14.05
2022-09-25T05:20:03.734Z,14.04
2022-09-25T05:24:05.422Z,14.01
2022-09-25T05:28:06.940Z,13.99
2022-09-25T05:32:08.475Z,13.98
2022-09-25T05:36:10.028Z,13.96
2022-09-25T05:40:12.276Z,13.93
2022-09-25T05:44:14.822Z,13.93
2022-09-25T05:48:17.183Z,13.91
2022-09-25T05:52:18.679Z,13.91
2022-09-25T05:56:20.767Z,13.91
2022-09-25T06:00:22.349Z,13.94
2022-09-25T06:04:23.844Z,13.91
2022-09-25T06:08:26.619Z,13.94
2022-09-25T06:12:31.472Z,13.96
2022-09-25T06:16:33.541Z,13.94
2022-09-25T06:20:36.209Z,13.99
2022-09-25T06:24:37.762Z,13.98
2022-09-25T06:28:39.511Z,13.99
2022-09-25T06:32:43.976Z,14.02
2022-09-25T06:36:45.489Z,14.04
2022-09-25T06:40:47.252Z,14.08
2022-09-25T06:44:48.808Z,14.11
2022-09-25T06:48:54.720Z,14.11
2022-09-25T06:52:56.233Z,14.11
2022-09-25T06:56:57.716Z,14.11
2022-09-25T07:00:59.343Z,14.12
2022-09-25T07:05:01.177Z,14.11
2022-09-25T07:09:03.823Z,14.12
2022-09-25T07:13:06.088Z,14.13
2022-09-25T07:17:08.277Z,14.13
2022-09-25T07:21:14.886Z,14.13
2022-09-25T07:25:16.692Z,14.20
2022-09-25T07:29:18.732Z,14.21
2022-09-25T07:33:21.570Z,14.23
2022-09-25T07:37:23.240Z,14.23
2022-09-25T07:41:24.864Z,14.23
2022-09-25T07:45:26.593Z,14.20
2022-09-25T07:49:29.195Z,14.20
2022-09-25T07:53:31.144Z,14.20
2022-09-25T07:57:33.974Z,14.19
2022-09-25T08:01:39.699Z,14.20
2022-09-25T08:05:44.317Z,14.20
2022-09-25T08:09:45.848Z,14.21
2022-09-25T08:13:47.473Z,14.26
2022-09-25T08:17:48.960Z,14.29
2022-09-25T08:21:50.540Z,14.35
2022-09-25T08:25:52.054Z,14.49
2022-09-25T08:29:53.638Z,14.60
2022-09-25T08:33:55.457Z,14.67
2022-09-25T08:37:57.770Z,14.75
2022-09-25T08:42:00.621Z,14.82
2022-09-25T08:46:25.191Z,14.94
2022-09-25T08:50:27.406Z,15.07
2022-09-25T08:54:31.628Z,15.22
2022-09-25T08:58:40.969Z,15.41
2022-09-25T09:02:47.879Z,15.49
2022-09-25T09:07:21.952Z,15.46
2022-09-25T09:11:23.534Z,15.43
2022-09-25T09:15:58.718Z,15.59
2022-09-25T09:20:13.993Z,15.68
2022-09-25T09:24:31.429Z,15.64
2022-09-25T09:28:38.540Z,15.80
2022-09-25T09:33:24.302Z,15.80
2022-09-25T09:37:44.012Z,15.76
2022-09-25T09:41:54.728Z,15.77
2022-09-25T09:46:15.287Z,15.78
2022-09-25T09:50:42.767Z,15.73
2022-09-25T09:54:55.765Z,15.66
2022-09-25T09:59:03.597Z,15.59
2022-09-25T10:03:14.044Z,15.56
2022-09-25T10:07:19.265Z,15.58
2022-09-25T10:11:21.583Z,15.56
2022-09-25T10:15:26.162Z,15.60
2022-09-25T10:19:29.054Z,15.56
2022-09-25T10:23:39.960Z,15.49
2022-09-25T10:27:47.971Z,15.48
2022-09-25T10:31:58.161Z,15.46
2022-09-25T10:36:00.241Z,15.53
2022-09-25T10:40:05.287Z,15.60
2022-09-25T10:44:20.680Z,15.73
2022-09-25T10:48:49.150Z,15.89
2022-09-25T10:52:59.014Z,15.93
2022-09-25T10:57:00.822Z,15.96
2022-09-25T11:01:04.572Z,15.93
2022-09-25T11:05:15.568Z,15.95
2022-09-25T11:09:20.153Z,16.08
2022-09-25T11:13:28.443Z,16.26
2022-09-25T11:17:29.911Z,16.41
2022-09-25T11:22:00.819Z,16.36
2022-09-25T11:26:25.552Z,16.34
2022-09-25T11:30:39.850Z,16.34
2022-09-25T11:34:56.323Z,16.32
2022-09-25T11:39:22.701Z,16.42
2022-09-25T11:43:57.762Z,16.54
2022-09-25T11:48:11.280Z,16.70
2022-09-25T11:52:42.171Z,16.96
2022-09-25T11:56:59.428Z,17.22
2022-09-25T12:01:24.154Z,17.39
2022-09-25T12:05:48.133Z,17.73
2022-09-25T12:09:53.401Z,18.05
2022-09-25T12:14:13.979Z,17.91
2022-09-25T12:18:40.346Z,17.74
2022-09-25T12:22:57.259Z,17.49
2022-09-25T12:27:42.041Z,17.27
2022-09-25T12:31:55.572Z,17.06
2022-09-25T12:36:08.891Z,16.90
2022-09-25T12:40:22.352Z,16.84
2022-09-25T12:44:36.375Z,16.78
2022-09-25T12:48:50.420Z,16.82
2022-09-25T12:53:02.511Z,16.91
2022-09-25T12:57:13.429Z,17.06
2022-09-25T13:01:23.478Z,17.12
2022-09-25T13:05:34.046Z,17.14
2022-09-25T13:09:47.071Z,17.18
2022-09-25T13:13:53.581Z,17.35
2022-09-25T13:17:55.700Z,17.51
2022-09-25T13:22:04.191Z,17.66
2022-09-25T13:26:17.584Z,17.57
2022-09-25T13:30:25.229Z,17.53
2022-09-25T13:34:26.780Z,17.45
2022-09-25T13:38:47.168Z,17.24
2022-09-25T13:42:49.426Z,17.03
2022-09-25T13:46:50.993Z,16.85
2022-09-25T13:51:18.623Z,16.84
2022-09-25T13:55:21.045Z,16.69
2022-09-25T13:59:34.789Z,16.60
2022-09-25T14:03:41.626Z,16.59
2022-09-25T14:07:44.238Z,16.60
2022-09-25T14:11:55.216Z,16.60
2022-09-25T14:16:00.585Z,16.44
2022-09-25T14:20:06.486Z,16.22
2022-09-25T14:24:30.978Z,16.04
2022-09-25T14:28:35.047Z,16.10
2022-09-25T14:32:56.198Z,16.17
2022-09-25T14:37:19.842Z,16.11
2022-09-25T14:41:59.082Z,16.07
2022-09-25T14:46:20.345Z,16.10
2022-09-25T14:50:26.908Z,16.26
2022-09-25T14:54:32.280Z,16.08
2022-09-25T14:58:34.096Z,15.93
2022-09-25T15:02:41.029Z,15.93
2022-09-25T15:06:44.364Z,16.01
2022-09-25T15:10:45.930Z,15.88
2022-09-25T15:15:00.603Z,15.86
2022-09-25T15:19:08.098Z,15.78
2022-09-25T15:23:17.364Z,15.73
2022-09-25T15:27:19.530Z,15.67
2022-09-25T15:31:21.516Z,15.60
2022-09-25T15:35:25.421Z,15.51
2022-09-25T15:39:29.370Z,15.48
2022-09-25T15:43:31.074Z,15.46
2022-09-25T15:47:35.549Z,15.49
2022-09-25T15:51:37.218Z,15.49
2022-09-25T15:55:39.011Z,15.43
2022-09-25T16:00:05.055Z,15.38
2022-09-25T16:04:28.432Z,15.41
2022-09-25T16:08:32.019Z,15.43
2022-09-25T16:12:42.612Z,15.48
2022-09-25T16:16:50.174Z,15.46
2022-09-25T16:21:18.039Z,15.44
2022-09-25T16:25:25.897Z,15.49
2022-09-25T16:29:33.491Z,15.49
2022-09-25T16:33:41.805Z,15.43
2022-09-25T16:37:43.329Z,15.37
2022-09-25T16:41:50.702Z,15.34
2022-09-25T16:46:00.914Z,15.27
2022-09-25T16:50:02.686Z,15.22
2022-09-25T16:54:08.926Z,15.27
2022-09-25T16:58:10.915Z,15.20
2022-09-25T17:02:33.095Z,15.19
2022-09-25T17:06:40.579Z,15.18
2022-09-25T17:10:42.390Z,15.19
2022-09-25T17:14:43.934Z,15.18
2022-09-25T17:18:45.502Z,15.19
2022-09-25T17:22:47.034Z,15.18
2022-09-25T17:26:50.320Z,15.16
2022-09-25T17:30:51.859Z,15.13
2022-09-25T17:34:54.197Z,15.11
2022-09-25T17:38:56.232Z,15.05
2022-09-25T17:42:57.830Z,15.03
2022-09-25T17:46:59.603Z,15.00
2022-09-25T17:51:12.657Z,15.01
2022-09-25T17:55:20.298Z,15.00
2022-09-25T17:59:22.229Z,14.98
2022-09-25T18:03:23.699Z,14.94
2022-09-25T18:07:28.668Z,14.91
2022-09-25T18:11:32.837Z,14.90
2022-09-25T18:15:36.778Z,14.90
2022-09-25T18:19:57.216Z,14.87
2022-09-25T18:23:58.780Z,14.86
2022-09-25T18:28:00.809Z,14.87
2022-09-25T18:32:02.575Z,14.83
2022-09-25T18:36:04.181Z,14.78
2022-09-25T18:40:06.208Z,14.74
2022-09-25T18:44:07.805Z,14.69
2022-09-25T18:48:09.327Z,14.66
2022-09-25T18:52:11.897Z,14.64
2022-09-25T18:56:13.466Z,14.60
2022-09-25T19:00:14.990Z,14.57
2022-09-25T19:04:17.545Z,14.59
2022-09-25T19:08:19.034Z,14.57
2022-09-25T19:12:21.421Z,14.54
2022-09-25T19:16:23.144Z,14.54
2022-09-25T19:20:25.118Z,14.56
2022-09-25T19:24:27.119Z,14.60
2022-09-25T19:28:30.474Z,14.63
2022-09-25T19:32:32.029Z,14.66
2022-09-25T19:36:34.754Z,14.61
2022-09-25T19:40:39.658Z,14.57
2022-09-25T19:44:41.744Z,14.56
2022-09-25T19:48:44.673Z,14.53
2022-09-25T19:52:50.758Z,14.53
2022-09-25T19:56:52.728Z,14.53
2022-09-25T20:00:56.745Z,14.48
2022-09-25T20:04:58.322Z,14.46
2022-09-25T20:09:03.552Z,14.46
2022-09-25T20:13:06.001Z,14.41
2022-09-25T20:17:10.018Z,14.39
2022-09-25T20:21:13.775Z,14.39
2022-09-25T20:25:15.563Z,14.41
2022-09-25T20:29:18.324Z,14.38
2022-09-25T20:33:19.839Z,14.38
2022-09-25T20:37:22.296Z,14.36
2022-09-25T20:41:25.752Z,14.34
2022-09-25T20:45:27.233Z,14.30
2022-09-25T20:49:28.850Z,14.30
2022-09-25T20:53:30.311Z,14.27
2022-09-25T20:57:33.253Z,14.21
2022-09-25T21:01:37.006Z,14.16
2022-09-25T21:05:39.871Z,14.13
2022-09-25T21:09:41.487Z,14.12
2022-09-25T21:13:43.005Z,14.06
2022-09-25T21:17:44.557Z,14.04
2022-09-25T21:21:47.226Z,14.02
2022-09-25T21:25:48.721Z,13.96
2022-09-25T21:29:50.264Z,13.98
2022-09-25T21:33:53.700Z,13.94
2022-09-25T21:37:55.262Z,13.93
2022-09-25T21:41:57.164Z,13.94
2022-09-25T21:46:00.418Z,13.91
2022-09-25T21:50:02.093Z,13.90
2022-09-25T21:54:04.052Z,13.87
2022-09-25T21:58:05.551Z,13.84
2022-09-25T22:02:07.242Z,13.81
2022-09-25T22:06:15.145Z,13.79
2022-09-25T22:10:16.713Z,13.75
2022-09-25T22:14:20.100Z,13.68
2022-09-25T22:18:22.125Z,13.61
2022-09-25T22:22:23.861Z,13.51
2022-09-25T22:26:26.603Z,13.46
2022-09-25T22:30:28.210Z,13.36
2022-09-25T22:34:29.971Z,13.29
2022-09-25T22:38:32.034Z,13.25
2022-09-25T22:42:33.573Z,13.16
2022-09-25T22:46:35.479Z,13.12
2022-09-25T22:50:36.988Z,13.10
2022-09-25T22:54:38.531Z,13.06
2022-09-25T22:58:41.124Z,13.04
2022-09-25T23:02:42.619Z,13.01
2022-09-25T23:06:44.382Z,12.98
2022-09-25T23:11:06.250Z,12.96
2022-09-25T23:15:08.153Z,12.92
2022-09-25T23:19:09.926Z,12.89
2022-09-25T23:23:11.472Z,12.84
2022-09-25T23:27:12.969Z,12.81
2022-09-25T23:31:17.143Z,12.76
2022-09-25T23:35:19.043Z,12.74
2022-09-25T23:39:20.731Z,12.70
2022-09-25T23:43:22.221Z,12.69
2022-09-25T23:47:23.774Z,12.66
2022-09-25T23:51:28.708Z,12.63
2022-09-25T23:55:30.327Z,12.61
2022-09-25T23:59:32.191Z,12.61
